Linden, Michigan
Current Conditions -  °F | °C
As of 12:53 AM on Sunday 26 Oct 2014 (Local Time) from KFNT Reporting Station
Clear Clear  
Wind Chill: 50°   Ceiling: Unl
Heat Index: 50°   Visibility: 10mi
Dew Point: 34°   Wind: 12mph
Humidity: 54%   Direction: 300°WNW
Pressure: 29.84"   Gusts: NA
Location:  42.81°N, 83.78°W
Report Text: KFNT 260453Z AUTO 30010KT 10SM CLR 10/01 A2984 RMK AO2 SLP107 T01000011 402060067
Loading
Personal Weather Stations






























Interactive Weather Map
Tropical Storm Tracking
New forecast layout! Learn more

10-Day Weather Forecast

Advertisements
Track Severe Weather on mobile